createdAt,value
2019-02-10T00:00:36.732Z,4.2
2019-02-10T00:01:43.927Z,4.2
2019-02-10T00:02:51.122Z,4.2
2019-02-10T00:03:58.319Z,4.2
2019-02-10T00:05:05.517Z,4.3
2019-02-10T00:06:12.712Z,4.2
2019-02-10T00:07:19.903Z,4.3
2019-02-10T00:08:27.099Z,4.3
2019-02-10T00:09:34.312Z,4.3
2019-02-10T00:10:41.505Z,4.3
2019-02-10T00:11:48.701Z,4.3
2019-02-10T00:12:55.894Z,4.3
2019-02-10T00:14:02.813Z,4.3
2019-02-10T00:15:10.017Z,4.2
2019-02-10T00:16:17.213Z,4.2
2019-02-10T00:17:24.413Z,4.2
2019-02-10T00:18:31.334Z,4.2
2019-02-10T00:19:38.530Z,4.1
2019-02-10T00:20:45.450Z,4.1
2019-02-10T00:21:52.651Z,4.1
2019-02-10T00:22:59.845Z,4.2
2019-02-10T00:24:06.766Z,4.1
2019-02-10T00:25:13.684Z,4.1
2019-02-10T00:26:20.879Z,4.1
2019-02-10T00:27:28.071Z,4.1
2019-02-10T00:28:35.268Z,4.1
2019-02-10T00:29:42.458Z,4.1
2019-02-10T00:30:49.651Z,4.1
2019-02-10T00:31:56.850Z,4.1
2019-02-10T00:33:04.042Z,4.1
2019-02-10T00:34:10.963Z,4.1
2019-02-10T00:35:18.157Z,4.1
2019-02-10T00:36:33.722Z,4.1
2019-02-10T00:37:40.956Z,4.1
2019-02-10T00:38:48.151Z,4.1
2019-02-10T00:39:55.347Z,4.1
2019-02-10T00:41:02.538Z,4.1
2019-02-10T00:42:09.200Z,4.1
2019-02-10T00:43:16.607Z,4.1
2019-02-10T00:44:23.800Z,4.1
2019-02-10T00:45:30.996Z,4.1
2019-02-10T00:46:38.194Z,4.1
2019-02-10T00:47:45.384Z,4.1
2019-02-10T00:48:52.584Z,4.1
2019-02-10T00:49:59.776Z,4.1
2019-02-10T00:51:06.969Z,4.1
2019-02-10T00:52:14.168Z,4.1
2019-02-10T00:53:21.080Z,4
2019-02-10T00:54:28.271Z,4
2019-02-10T00:55:35.465Z,4
2019-02-10T00:56:42.661Z,4
2019-02-10T00:57:49.578Z,4
2019-02-10T00:58:56.770Z,4
2019-02-10T01:00:03.692Z,4
2019-02-10T01:01:10.610Z,4
2019-02-10T01:02:17.805Z,4
2019-02-10T01:03:25.009Z,4.1
2019-02-10T01:04:32.206Z,4.1
2019-02-10T01:05:39.403Z,4
2019-02-10T01:06:46.603Z,4
2019-02-10T01:07:53.794Z,4
2019-02-10T01:09:00.990Z,4
2019-02-10T01:10:07.641Z,3.9
2019-02-10T01:11:14.831Z,3.9
2019-02-10T01:12:22.030Z,3.9
2019-02-10T01:13:29.245Z,3.9
2019-02-10T01:14:36.444Z,3.9
2019-02-10T01:15:43.637Z,3.9
2019-02-10T01:16:50.830Z,3.9
2019-02-10T01:17:58.023Z,3.9
2019-02-10T01:19:04.663Z,3.9
2019-02-10T01:20:11.861Z,3.8
2019-02-10T01:21:19.055Z,3.8
2019-02-10T01:22:26.296Z,3.8
2019-02-10T01:23:33.491Z,3.8
2019-02-10T01:24:40.684Z,3.8
2019-02-10T01:25:47.876Z,3.8
2019-02-10T01:26:55.074Z,3.8
2019-02-10T01:28:02.261Z,3.8
2019-02-10T01:29:09.184Z,3.8
2019-02-10T01:30:16.371Z,3.8
2019-02-10T01:31:24.373Z,3.8
2019-02-10T01:32:31.023Z,3.8
2019-02-10T01:33:37.946Z,3.8
2019-02-10T01:34:45.138Z,3.8
2019-02-10T01:35:52.060Z,3.8
2019-02-10T01:36:58.711Z,3.8
2019-02-10T01:38:05.901Z,3.8
2019-02-10T01:39:13.095Z,3.8
2019-02-10T01:40:20.292Z,3.8
2019-02-10T01:41:27.482Z,3.8
2019-02-10T01:42:34.673Z,3.8
2019-02-10T01:43:41.591Z,3.9
2019-02-10T01:44:48.790Z,3.9
2019-02-10T01:45:55.712Z,3.9
2019-02-10T01:47:02.904Z,3.8
2019-02-10T01:48:10.098Z,3.8
2019-02-10T01:49:17.288Z,3.7
2019-02-10T01:50:24.483Z,3.7
2019-02-10T01:51:31.674Z,3.7
2019-02-10T01:52:38.595Z,3.7
2019-02-10T01:53:45.790Z,3.7
2019-02-10T01:54:52.986Z,3.7
2019-02-10T01:56:00.181Z,3.6
2019-02-10T01:57:07.385Z,3.6
2019-02-10T01:58:14.574Z,3.6
2019-02-10T01:59:21.765Z,3.6
2019-02-10T02:00:28.959Z,3.6
2019-02-10T02:01:36.154Z,3.6
2019-02-10T02:02:43.357Z,3.6
2019-02-10T02:03:50.552Z,3.6
2019-02-10T02:04:57.746Z,3.6
2019-02-10T02:06:04.938Z,3.6
2019-02-10T02:07:11.856Z,3.6
2019-02-10T02:08:18.778Z,3.6
2019-02-10T02:09:25.979Z,3.5
2019-02-10T02:10:33.171Z,3.5
2019-02-10T02:11:40.085Z,3.5
2019-02-10T02:12:47.273Z,3.5
2019-02-10T02:13:54.201Z,3.5
2019-02-10T02:15:01.396Z,3.4
2019-02-10T02:16:08.318Z,3.4
2019-02-10T02:17:15.249Z,3.4
2019-02-10T02:18:22.448Z,3.4
2019-02-10T02:19:29.645Z,3.3
2019-02-10T02:20:36.838Z,3.3
2019-02-10T02:21:43.759Z,3.2
2019-02-10T02:22:50.681Z,3.2
2019-02-10T02:23:57.595Z,3.2
2019-02-10T02:25:04.515Z,3.2
2019-02-10T02:26:11.711Z,3.2
2019-02-10T02:27:18.910Z,3.2
2019-02-10T02:28:25.823Z,3.1
2019-02-10T02:29:32.758Z,3.1
2019-02-10T02:30:39.676Z,3.1
2019-02-10T02:31:46.580Z,3.1
2019-02-10T02:32:53.774Z,3.1
2019-02-10T02:34:00.696Z,3
2019-02-10T02:35:07.357Z,3
2019-02-10T02:36:14.005Z,3
2019-02-10T02:37:21.202Z,3
2019-02-10T02:38:28.397Z,3.1
2019-02-10T02:39:35.591Z,3
2019-02-10T02:40:42.244Z,3
2019-02-10T02:41:49.167Z,3
2019-02-10T02:42:56.583Z,3
2019-02-10T02:44:03.767Z,3
2019-02-10T02:45:10.687Z,3
2019-02-10T02:46:17.882Z,3
2019-02-10T02:47:24.806Z,3.1
2019-02-10T02:48:31.999Z,3.1
2019-02-10T02:49:38.917Z,3.1
2019-02-10T02:50:46.110Z,3.1
2019-02-10T02:51:52.754Z,3.2
2019-02-10T02:52:59.691Z,3.2
2019-02-10T02:54:06.878Z,3.2
2019-02-10T02:55:14.070Z,3.2
2019-02-10T02:56:21.263Z,3.2
2019-02-10T02:57:28.459Z,3.2
2019-02-10T02:58:35.652Z,3.2
2019-02-10T02:59:42.568Z,3.3
2019-02-10T03:00:49.521Z,3.3
2019-02-10T03:01:56.718Z,3.2
2019-02-10T03:03:03.915Z,3.2
2019-02-10T03:04:11.115Z,3.3
2019-02-10T03:05:18.302Z,3.4
2019-02-10T03:06:25.492Z,3.4
2019-02-10T03:07:32.691Z,3.4
2019-02-10T03:08:39.883Z,3.4
2019-02-10T03:09:46.805Z,3.5
2019-02-10T23:00:05.947Z,5
2019-02-10T23:01:13.145Z,5
2019-02-10T23:02:20.371Z,5
2019-02-10T23:03:27.274Z,5
2019-02-10T23:04:34.468Z,5
2019-02-10T23:05:41.400Z,5
2019-02-10T23:06:48.323Z,5
2019-02-10T23:07:55.534Z,5
2019-02-10T23:09:02.727Z,5
2019-02-10T23:10:10.135Z,5
2019-02-10T23:11:17.326Z,5
2019-02-10T23:12:24.519Z,4.9
2019-02-10T23:13:31.721Z,4.9
2019-02-10T23:14:38.646Z,4.9
2019-02-10T23:15:45.848Z,4.9
2019-02-10T23:16:52.767Z,4.9
2019-02-10T23:17:59.969Z,4.8
2019-02-10T23:19:07.167Z,4.9
2019-02-10T23:20:14.360Z,4.8
2019-02-10T23:21:21.555Z,4.8
2019-02-10T23:22:28.754Z,4.8
2019-02-10T23:23:35.693Z,4.8
2019-02-10T23:24:42.885Z,4.8
2019-02-10T23:25:49.810Z,4.8
2019-02-10T23:26:57.004Z,4.8
2019-02-10T23:28:03.927Z,4.9
2019-02-10T23:29:10.853Z,4.8
2019-02-10T23:30:18.044Z,4.9
2019-02-10T23:31:25.245Z,4.9
2019-02-10T23:32:32.168Z,4.8
2019-02-10T23:33:38.825Z,4.8
2019-02-10T23:34:46.020Z,4.8
2019-02-10T23:35:53.222Z,4.8
2019-02-10T23:37:00.413Z,4.8
2019-02-10T23:38:07.341Z,4.8
2019-02-10T23:39:14.265Z,4.8
2019-02-10T23:40:21.464Z,4.8
2019-02-10T23:41:28.388Z,4.8
2019-02-10T23:42:35.313Z,4.8
2019-02-10T23:43:42.513Z,4.7
2019-02-10T23:44:49.430Z,4.7
2019-02-10T23:45:56.083Z,4.7
2019-02-10T23:47:03.274Z,4.7
2019-02-10T23:48:10.472Z,4.7
2019-02-10T23:49:17.669Z,4.6
2019-02-10T23:50:24.865Z,4.6
2019-02-10T23:51:32.088Z,4.6
2019-02-10T23:52:39.010Z,4.6
2019-02-10T23:53:46.205Z,4.6
2019-02-10T23:54:53.411Z,4.5
2019-02-10T23:56:00.610Z,4.6
2019-02-10T23:57:07.806Z,4.6
2019-02-10T23:58:15.007Z,4.5
2019-02-10T23:59:22.200Z,4.5
